createdAt,value
2022-08-09T00:01:55.008Z,99.90
2022-08-09T00:04:34.902Z,99.90
2022-08-09T00:07:07.699Z,99.90
2022-08-09T00:09:40.341Z,99.90
2022-08-09T00:12:09.682Z,99.90
2022-08-09T00:14:56.831Z,99.90
2022-08-09T00:18:10.695Z,99.90
2022-08-09T00:20:15.221Z,99.90
2022-08-09T00:22:44.876Z,99.90
2022-08-09T00:25:15.647Z,99.90
2022-08-09T00:27:51.766Z,99.90
2022-08-09T00:30:25.614Z,99.90
2022-08-09T00:32:55.149Z,99.90
2022-08-09T00:35:23.974Z,99.90
2022-08-09T00:37:52.532Z,99.90
2022-08-09T00:40:22.586Z,99.90
2022-08-09T00:44:19.184Z,99.90
2022-08-09T00:45:54.027Z,99.90
2022-08-09T00:48:22.997Z,99.90
2022-08-09T00:50:52.266Z,99.90
2022-08-09T00:53:24.292Z,99.90
2022-08-09T00:56:04.880Z,99.90
2022-08-09T00:58:39.074Z,99.90
2022-08-09T01:01:15.983Z,99.90
2022-08-09T01:03:52.698Z,99.90
2022-08-09T01:06:35.345Z,99.90
2022-08-09T01:09:36.783Z,99.90
2022-08-09T01:12:14.858Z,99.90
2022-08-09T01:14:54.359Z,99.90
2022-08-09T01:17:34.017Z,99.90
2022-08-09T01:20:06.076Z,99.90
2022-08-09T01:22:59.214Z,99.90
2022-08-09T01:25:53.807Z,99.90
2022-08-09T01:28:26.001Z,99.90
2022-08-09T01:30:59.876Z,99.90
2022-08-09T01:33:35.314Z,99.90
2022-08-09T01:36:08.619Z,99.90
2022-08-09T01:38:40.731Z,99.90
2022-08-09T01:41:17.926Z,99.90
2022-08-09T01:43:52.650Z,99.90
2022-08-09T01:46:26.644Z,99.90
2022-08-09T01:49:10.226Z,99.90
2022-08-09T01:51:44.705Z,99.90
2022-08-09T01:54:25.405Z,99.90
2022-08-09T01:56:57.921Z,99.90
2022-08-09T01:59:50.935Z,99.90
2022-08-09T02:02:23.279Z,99.90
2022-08-09T02:05:04.664Z,99.90
2022-08-09T02:08:39.996Z,99.90
2022-08-09T02:10:32.260Z,99.90
2022-08-09T02:13:04.782Z,99.90
2022-08-09T02:15:49.413Z,99.90
2022-08-09T02:18:23.594Z,99.90
2022-08-09T02:21:00.705Z,99.90
2022-08-09T02:23:39.784Z,99.90
2022-08-09T02:26:24.888Z,99.90
2022-08-09T02:29:00.115Z,99.90
2022-08-09T02:31:35.685Z,99.90
2022-08-09T02:34:40.119Z,99.90
2022-08-09T02:37:05.138Z,99.90
2022-08-09T02:39:42.530Z,99.90
2022-08-09T02:42:17.706Z,99.90
2022-08-09T02:44:50.644Z,99.90
2022-08-09T02:47:22.977Z,99.90
2022-08-09T02:50:01.255Z,99.90
2022-08-09T02:52:41.163Z,99.90
2022-08-09T02:55:20.166Z,99.90
2022-08-09T02:58:00.158Z,99.90
2022-08-09T03:00:57.731Z,99.90
2022-08-09T03:03:59.591Z,99.90
2022-08-09T03:06:21.422Z,99.90
2022-08-09T03:08:52.883Z,99.90
2022-08-09T03:12:04.258Z,99.90
2022-08-09T03:14:14.245Z,99.90
2022-08-09T03:16:48.245Z,99.90
2022-08-09T03:19:58.932Z,99.90
2022-08-09T03:22:12.253Z,99.90
2022-08-09T03:25:06.353Z,99.90
2022-08-09T03:27:52.811Z,99.90
2022-08-09T03:30:33.584Z,99.90
2022-08-09T03:33:17.255Z,99.90
2022-08-09T03:36:12.492Z,99.90
2022-08-09T03:38:42.810Z,99.90
2022-08-09T03:41:15.554Z,99.90
2022-08-09T03:43:51.894Z,99.90
2022-08-09T03:46:34.705Z,99.90
2022-08-09T03:49:08.074Z,99.90
2022-08-09T03:51:55.541Z,99.90
2022-08-09T03:54:31.253Z,99.90
2022-08-09T03:57:18.482Z,99.90
2022-08-09T03:59:54.797Z,99.90
2022-08-09T04:02:28.304Z,99.90
2022-08-09T04:05:00.719Z,99.90
2022-08-09T04:07:47.763Z,99.90
2022-08-09T04:10:29.444Z,99.90
2022-08-09T04:13:01.114Z,99.90
2022-08-09T04:16:18.154Z,99.90
2022-08-09T04:18:21.933Z,99.90
2022-08-09T04:20:51.338Z,99.90
2022-08-09T04:23:24.314Z,99.90
2022-08-09T04:25:56.130Z,99.90
2022-08-09T04:28:33.569Z,99.90
2022-08-09T04:31:07.980Z,99.90
2022-08-09T04:33:51.777Z,99.90
2022-08-09T04:36:27.550Z,99.90
2022-08-09T04:39:00.432Z,99.90
2022-08-09T04:41:33.111Z,99.90
2022-08-09T04:44:06.241Z,99.90
2022-08-09T04:46:59.866Z,99.90
2022-08-09T04:49:52.423Z,99.90
2022-08-09T04:52:26.082Z,99.90
2022-08-09T04:54:58.985Z,99.90
2022-08-09T04:57:54.115Z,99.90
2022-08-09T05:00:17.090Z,99.90
2022-08-09T05:02:48.736Z,99.90
2022-08-09T05:05:32.182Z,99.90
2022-08-09T05:08:13.947Z,99.90
2022-08-09T05:10:46.536Z,99.90
2022-08-09T05:13:15.318Z,99.90
2022-08-09T05:15:48.003Z,99.90
2022-08-09T05:18:50.798Z,99.90
2022-08-09T05:21:10.032Z,99.90
2022-08-09T05:23:56.851Z,99.90
2022-08-09T05:26:37.047Z,99.90
2022-08-09T05:29:22.233Z,99.90
2022-08-09T05:31:57.224Z,99.90
2022-08-09T05:34:30.868Z,99.90
2022-08-09T05:37:02.412Z,99.90
2022-08-09T05:39:36.334Z,99.90
2022-08-09T05:42:17.742Z,99.90
2022-08-09T05:44:52.203Z,99.90
2022-08-09T05:47:22.866Z,99.90
2022-08-09T05:50:25.157Z,99.90
2022-08-09T05:52:41.937Z,99.90
2022-08-09T05:55:20.439Z,99.90
2022-08-09T05:57:56.868Z,99.90
2022-08-09T06:00:28.889Z,99.90
2022-08-09T06:02:58.868Z,99.90
2022-08-09T06:05:30.676Z,99.90
2022-08-09T06:08:19.304Z,99.90
2022-08-09T06:10:52.836Z,99.90
2022-08-09T06:13:23.592Z,99.90
2022-08-09T06:15:53.196Z,99.90
2022-08-09T06:18:23.816Z,99.90
2022-08-09T06:20:57.956Z,99.90
2022-08-09T06:23:58.633Z,99.90
2022-08-09T06:26:22.436Z,99.90
2022-08-09T06:29:00.106Z,99.90
2022-08-09T06:31:40.364Z,99.90
2022-08-09T06:34:23.571Z,99.90
2022-08-09T06:36:59.264Z,99.90
2022-08-09T06:39:49.134Z,99.90
2022-08-09T06:42:19.676Z,96.70
2022-08-09T06:44:51.796Z,95.60
2022-08-09T06:47:23.610Z,97.80
2022-08-09T06:50:13.449Z,95.90
2022-08-09T06:52:46.880Z,94.00
2022-08-09T06:55:16.495Z,95.20
2022-08-09T06:58:02.956Z,92.60
2022-08-09T07:00:56.551Z,91.60
2022-08-09T07:03:27.795Z,91.20
2022-08-09T07:06:04.845Z,90.60
2022-08-09T07:08:37.289Z,86.90
2022-08-09T07:11:08.519Z,83.20
2022-08-09T07:13:45.369Z,85.10
2022-08-09T07:16:41.952Z,84.30
2022-08-09T07:19:18.606Z,87.10
2022-08-09T07:21:57.674Z,85.40
2022-08-09T07:24:32.406Z,83.40
2022-08-09T07:27:23.900Z,82.80
2022-08-09T07:29:57.050Z,78.20
2022-08-09T07:32:32.662Z,79.70
2022-08-09T07:35:10.778Z,78.10
2022-08-09T07:37:44.047Z,76.60
2022-08-09T07:40:17.597Z,80.90
2022-08-09T07:42:56.267Z,79.40
2022-08-09T07:45:38.169Z,73.00
2022-08-09T07:48:27.380Z,72.10
2022-08-09T07:51:09.729Z,73.80
2022-08-09T07:54:05.431Z,70.80
2022-08-09T07:56:38.892Z,72.40
2022-08-09T07:59:33.630Z,73.70
2022-08-09T08:02:07.116Z,70.40
2022-08-09T08:04:39.947Z,68.80
2022-08-09T08:07:14.897Z,74.70
2022-08-09T08:10:08.175Z,66.90
2022-08-09T08:12:43.271Z,62.30
2022-08-09T08:15:16.491Z,66.60
2022-08-09T08:17:53.884Z,61.60
2022-08-09T08:20:30.335Z,60.80
2022-08-09T08:23:17.134Z,63.70
2022-08-09T08:25:49.727Z,59.70
2022-08-09T08:28:31.799Z,58.90
2022-08-09T08:31:10.680Z,58.80
2022-08-09T08:33:52.877Z,57.40
2022-08-09T08:36:29.208Z,57.70
2022-08-09T08:38:59.695Z,56.40
2022-08-09T08:41:50.181Z,57.10
2022-08-09T08:44:27.175Z,58.90
2022-08-09T08:47:02.059Z,56.60
2022-08-09T08:49:46.309Z,57.50
2022-08-09T08:52:57.314Z,55.40
2022-08-09T08:55:10.009Z,55.20
2022-08-09T08:57:38.895Z,56.50
2022-08-09T09:00:16.839Z,57.20
2022-08-09T09:03:08.588Z,55.80
2022-08-09T09:05:59.140Z,54.70
2022-08-09T09:08:38.061Z,56.30
2022-08-09T09:11:17.624Z,53.10
2022-08-09T09:13:56.282Z,54.70
2022-08-09T09:16:32.272Z,54.20
2022-08-09T09:22:08.006Z,52.40
2022-08-09T09:24:43.997Z,53.70
2022-08-09T09:28:04.228Z,52.90
2022-08-09T09:30:33.064Z,54.90
2022-08-09T09:33:13.780Z,53.70
2022-08-09T09:36:02.517Z,53.80
2022-08-09T09:38:44.513Z,53.40
2022-08-09T09:41:33.444Z,52.00
2022-08-09T09:44:27.922Z,52.20
2022-08-09T09:47:09.112Z,54.20
2022-08-09T09:50:07.767Z,52.20
2022-08-09T09:52:35.844Z,48.50
2022-08-09T09:55:16.084Z,48.00
2022-08-09T09:58:16.734Z,48.40
2022-08-09T10:00:54.027Z,47.20
2022-08-09T10:03:56.171Z,47.20
2022-08-09T10:06:25.537Z,46.20
2022-08-09T10:09:02.917Z,46.30
2022-08-09T10:12:07.670Z,45.10
2022-08-09T10:14:33.890Z,45.60
2022-08-09T10:17:39.110Z,47.20
2022-08-09T10:20:01.075Z,44.00
2022-08-09T10:22:39.076Z,44.40
2022-08-09T10:25:11.979Z,45.70
2022-08-09T10:27:56.100Z,44.00
2022-08-09T10:34:07.934Z,43.30
2022-08-09T10:36:11.688Z,43.50
2022-08-09T10:38:56.384Z,42.30
2022-08-09T10:41:26.035Z,42.00
2022-08-09T10:43:59.197Z,42.80
2022-08-09T10:46:57.636Z,42.20
2022-08-09T10:49:49.826Z,43.00
2022-08-09T10:52:42.806Z,41.60
2022-08-09T10:55:25.013Z,40.10
2022-08-09T10:57:55.654Z,41.10
2022-08-09T11:00:41.705Z,40.60
2022-08-09T11:03:46.985Z,41.50
2022-08-09T11:06:26.184Z,40.70
2022-08-09T11:08:54.934Z,41.30
2022-08-09T11:12:10.672Z,42.20
2022-08-09T11:14:41.928Z,39.30
2022-08-09T11:17:53.670Z,40.40
2022-08-09T11:20:47.662Z,41.00
2022-08-09T11:23:24.216Z,40.60
2022-08-09T11:26:00.331Z,38.20
2022-08-09T11:28:56.136Z,37.80
2022-08-09T11:31:49.230Z,39.70
2022-08-09T11:34:32.128Z,39.70
2022-08-09T11:37:07.393Z,38.80
2022-08-09T11:40:04.914Z,42.40
2022-08-09T11:42:48.387Z,38.70
2022-08-09T11:45:42.617Z,38.50
2022-08-09T11:48:26.251Z,37.70
2022-08-09T11:51:38.125Z,37.30
2022-08-09T11:54:27.864Z,38.40
2022-08-09T11:57:59.849Z,39.70
2022-08-09T12:00:28.140Z,40.30
2022-08-09T12:02:57.962Z,39.30
2022-08-09T12:05:37.920Z,39.80
2022-08-09T12:08:12.365Z,39.20
2022-08-09T12:10:53.746Z,39.40
2022-08-09T12:14:09.755Z,39.80
2022-08-09T12:16:37.872Z,41.20
2022-08-09T12:19:09.633Z,40.70
2022-08-09T12:21:48.392Z,40.70
2022-08-09T12:24:23.792Z,39.80
2022-08-09T12:28:58.496Z,40.20
2022-08-09T12:30:01.810Z,40.50
2022-08-09T12:32:33.209Z,38.90
2022-08-09T12:35:04.755Z,38.70
2022-08-09T12:37:44.177Z,38.50
2022-08-09T12:40:18.986Z,39.90
2022-08-09T12:42:50.420Z,38.40
2022-08-09T12:45:32.508Z,38.80
2022-08-09T12:48:04.640Z,40.40
2022-08-09T12:50:33.479Z,38.60
2022-08-09T12:53:17.607Z,37.70
2022-08-09T12:56:14.375Z,38.20
2022-08-09T12:58:42.946Z,38.40
2022-08-09T13:01:28.263Z,37.20
2022-08-09T13:04:01.952Z,37.90
2022-08-09T13:06:34.205Z,35.60
2022-08-09T13:09:12.533Z,37.60
2022-08-09T13:11:45.323Z,35.80
2022-08-09T13:14:42.700Z,35.40
2022-08-09T13:17:44.323Z,36.70
2022-08-09T13:20:16.280Z,35.90
2022-08-09T13:23:02.047Z,36.40
2022-08-09T13:25:52.980Z,37.30
2022-08-09T13:28:33.744Z,37.20
2022-08-09T13:32:17.771Z,37.10
2022-08-09T13:33:57.745Z,34.90
2022-08-09T13:36:42.127Z,35.30
2022-08-09T13:41:19.327Z,34.00
2022-08-09T13:42:10.968Z,34.70
2022-08-09T13:44:43.559Z,35.20
2022-08-09T13:47:31.272Z,34.90
2022-08-09T13:50:03.263Z,34.40
2022-08-09T13:52:42.497Z,34.70
2022-08-09T13:55:13.739Z,33.90
2022-08-09T13:57:47.254Z,36.60
2022-08-09T14:00:28.408Z,34.70
2022-08-09T14:03:05.009Z,36.00
2022-08-09T14:05:59.974Z,35.10
2022-08-09T14:08:31.831Z,34.90
2022-08-09T14:11:01.342Z,35.30
2022-08-09T14:14:23.292Z,35.00
2022-08-09T14:16:28.436Z,35.70
2022-08-09T14:18:59.511Z,34.60
2022-08-09T14:21:29.539Z,33.60
2022-08-09T14:24:01.355Z,32.70
2022-08-09T14:26:39.590Z,33.90
2022-08-09T14:30:04.408Z,34.20
2022-08-09T14:32:10.957Z,35.10
2022-08-09T14:34:43.032Z,34.00
2022-08-09T14:37:12.491Z,33.70
2022-08-09T14:39:46.991Z,35.50
2022-08-09T14:42:38.954Z,34.30
2022-08-09T14:46:53.953Z,33.60
2022-08-09T14:48:00.235Z,35.10
2022-08-09T14:50:36.955Z,33.20
2022-08-09T14:53:11.446Z,32.90
2022-08-09T14:55:41.965Z,32.40
2022-08-09T14:58:11.093Z,32.60
2022-08-09T15:00:42.275Z,33.30
2022-08-09T15:03:11.345Z,33.10
2022-08-09T15:05:52.334Z,33.60
2022-08-09T15:08:30.319Z,33.30
2022-08-09T15:11:01.036Z,33.80
2022-08-09T15:13:56.645Z,32.70
2022-08-09T15:16:22.418Z,33.50
2022-08-09T15:18:52.453Z,33.50
2022-08-09T15:21:58.697Z,32.70
2022-08-09T15:24:19.078Z,32.40
2022-08-09T15:26:53.365Z,33.50
2022-08-09T15:30:59.835Z,32.20
2022-08-09T15:32:29.969Z,33.20
2022-08-09T15:35:01.014Z,32.00
2022-08-09T15:38:10.703Z,32.30
2022-08-09T15:40:32.253Z,31.90
2022-08-09T15:43:02.433Z,33.10
2022-08-09T15:45:31.279Z,32.80
2022-08-09T15:48:29.181Z,33.20
2022-08-09T15:50:59.620Z,33.30
2022-08-09T15:54:05.337Z,31.60
2022-08-09T15:56:21.499Z,33.60
2022-08-09T15:58:57.409Z,33.60
2022-08-09T16:01:26.444Z,32.30
2022-08-09T16:04:00.068Z,32.20
2022-08-09T16:06:35.635Z,33.20
2022-08-09T16:09:07.573Z,34.30
2022-08-09T16:11:35.973Z,36.50
2022-08-09T16:14:07.905Z,36.20
2022-08-09T16:16:37.846Z,31.70
2022-08-09T16:19:07.650Z,32.90
2022-08-09T16:21:36.448Z,32.00
2022-08-09T16:24:08.839Z,33.20
2022-08-09T16:26:56.786Z,31.10
2022-08-09T16:29:37.984Z,32.60
2022-08-09T16:32:33.610Z,32.50
2022-08-09T16:35:02.685Z,32.40
2022-08-09T16:37:54.755Z,33.60
2022-08-09T16:40:29.914Z,34.10
2022-08-09T16:43:08.861Z,32.90
2022-08-09T16:45:44.462Z,31.70
2022-08-09T16:48:41.702Z,33.40
2022-08-09T16:51:07.528Z,32.70
2022-08-09T16:53:43.812Z,33.20
2022-08-09T16:56:27.468Z,33.20
2022-08-09T16:58:59.487Z,32.60
2022-08-09T17:01:34.053Z,32.20
2022-08-09T17:04:05.493Z,33.60
2022-08-09T17:06:48.333Z,33.70
2022-08-09T17:09:45.655Z,32.30
2022-08-09T17:12:14.358Z,33.80
2022-08-09T17:14:47.638Z,34.50
2022-08-09T17:17:26.842Z,33.90
2022-08-09T17:20:28.415Z,36.20
2022-08-09T17:22:49.792Z,36.90
2022-08-09T17:25:22.218Z,37.80
2022-08-09T17:27:55.262Z,38.80
2022-08-09T17:30:26.512Z,39.00
2022-08-09T17:33:01.508Z,39.90
2022-08-09T17:35:41.072Z,39.50
2022-08-09T17:38:12.993Z,39.80
2022-08-09T17:40:53.193Z,40.90
2022-08-09T17:43:34.044Z,41.00
2022-08-09T17:46:07.594Z,40.80
2022-08-09T17:48:51.833Z,41.30
2022-08-09T17:51:22.361Z,41.70
2022-08-09T17:53:55.023Z,41.60
2022-08-09T17:56:29.226Z,41.60
2022-08-09T17:59:09.212Z,42.20
2022-08-09T18:02:03.458Z,42.70
2022-08-09T18:04:29.333Z,42.90
2022-08-09T18:06:58.932Z,43.60
2022-08-09T18:09:40.720Z,44.20
2022-08-09T18:12:17.884Z,44.30
2022-08-09T18:14:54.997Z,45.80
2022-08-09T18:18:03.805Z,45.60
2022-08-09T18:20:55.190Z,46.50
2022-08-09T18:23:07.285Z,46.20
2022-08-09T18:25:45.532Z,46.60
2022-08-09T18:30:34.623Z,47.50
2022-08-09T18:31:13.552Z,48.30
2022-08-09T18:33:44.225Z,48.20
2022-08-09T18:36:31.745Z,48.70
2022-08-09T18:39:05.881Z,49.30
2022-08-09T18:41:37.508Z,50.30
2022-08-09T19:10:39.221Z,51.90
2022-08-09T19:13:23.567Z,67.00
2022-08-09T19:15:59.916Z,68.70
2022-08-09T19:18:33.755Z,71.20
2022-08-09T19:21:05.612Z,72.20
2022-08-09T19:24:32.918Z,73.90
2022-08-09T19:26:31.714Z,77.30
2022-08-09T19:29:03.131Z,80.30
2022-08-09T19:31:45.122Z,80.20
2022-08-09T19:34:22.104Z,85.30
2022-08-09T19:36:52.659Z,87.50
2022-08-09T19:39:43.045Z,84.90
2022-08-09T19:42:14.932Z,85.50
2022-08-09T19:44:50.712Z,84.80
2022-08-09T19:47:23.355Z,85.60
2022-08-09T19:50:09.647Z,84.70
2022-08-09T19:52:51.827Z,85.30
2022-08-09T19:55:30.906Z,85.80
2022-08-09T19:58:16.127Z,86.70
2022-08-09T20:00:47.610Z,86.90
2022-08-09T20:04:17.067Z,85.60
2022-08-09T20:06:22.588Z,85.20
2022-08-09T20:08:56.677Z,85.90
2022-08-09T20:11:26.842Z,84.50
2022-08-09T20:13:55.942Z,86.30
2022-08-09T20:16:36.762Z,85.40
2022-08-09T20:19:49.081Z,86.60
2022-08-09T20:22:08.941Z,88.40
2022-08-09T20:24:40.716Z,87.00
2022-08-09T20:27:11.690Z,85.60
2022-08-09T20:29:43.104Z,85.50
2022-08-09T20:32:30.562Z,86.20
2022-08-09T20:35:02.392Z,86.10
2022-08-09T20:38:18.609Z,85.60
2022-08-09T20:40:26.922Z,89.40
2022-08-09T20:43:00.400Z,88.40
2022-08-09T20:46:01.767Z,88.80
2022-08-09T20:48:39.701Z,89.90
2022-08-09T20:51:19.121Z,89.40
2022-08-09T20:53:49.786Z,90.70
2022-08-09T20:56:21.879Z,90.60
2022-08-09T20:58:58.705Z,90.20
2022-08-09T21:01:34.887Z,90.30
2022-08-09T21:05:53.958Z,90.30
2022-08-09T21:07:12.254Z,90.60
2022-08-09T21:09:55.504Z,90.70
2022-08-09T21:15:15.432Z,91.40
2022-08-09T21:18:11.277Z,90.30
2022-08-09T21:20:35.791Z,90.10
2022-08-09T21:23:09.195Z,90.20
2022-08-09T21:25:59.765Z,91.00
2022-08-09T21:28:35.115Z,91.10
2022-08-09T21:31:17.766Z,90.40
2022-08-09T21:33:51.696Z,91.00
2022-08-09T21:36:27.922Z,90.70
2022-08-09T21:38:59.274Z,91.20
2022-08-09T21:42:04.871Z,91.30
2022-08-09T21:44:34.079Z,91.30
2022-08-09T21:47:07.945Z,92.20
2022-08-09T21:49:43.152Z,93.20
2022-08-09T21:52:18.159Z,93.60
2022-08-09T21:54:59.290Z,93.80
2022-08-09T21:57:38.438Z,93.50
2022-08-09T22:00:31.709Z,92.30
2022-08-09T22:03:05.668Z,91.70
2022-08-09T22:05:37.479Z,91.10
2022-08-09T22:08:13.667Z,90.50
2022-08-09T22:11:01.063Z,90.60
2022-08-09T22:13:36.966Z,91.10
2022-08-09T22:16:08.573Z,90.90
2022-08-09T22:18:53.306Z,91.00
2022-08-09T22:21:27.337Z,91.10
2022-08-09T22:24:17.000Z,91.30
2022-08-09T22:26:47.895Z,91.90
2022-08-09T22:29:28.429Z,91.70
2022-08-09T22:32:01.038Z,91.30
2022-08-09T22:34:29.863Z,91.50
2022-08-09T22:37:01.223Z,91.40
2022-08-09T22:39:56.329Z,91.60
2022-08-09T22:42:21.886Z,91.30
2022-08-09T22:45:00.510Z,91.70
2022-08-09T22:48:12.248Z,91.40
2022-08-09T22:50:34.858Z,90.80
2022-08-09T22:53:04.425Z,90.70
2022-08-09T22:56:06.124Z,90.80
2022-08-09T22:58:33.279Z,90.40
2022-08-09T23:01:06.203Z,90.40
2022-08-09T23:04:03.623Z,90.30
2022-08-09T23:06:34.772Z,89.60
2022-08-09T23:09:05.808Z,89.40
2022-08-09T23:11:34.379Z,88.90
2022-08-09T23:14:09.784Z,88.60
2022-08-09T23:16:43.189Z,88.80
2022-08-09T23:19:12.778Z,89.70
2022-08-09T23:21:43.569Z,90.00
2022-08-09T23:24:12.383Z,90.00
2022-08-09T23:26:41.498Z,89.40
2022-08-09T23:29:14.027Z,90.30
2022-08-09T23:31:44.087Z,89.60
2022-08-09T23:34:12.606Z,89.30
2022-08-09T23:36:42.626Z,89.70
2022-08-09T23:39:11.237Z,89.20
2022-08-09T23:41:40.338Z,89.70
2022-08-09T23:44:09.855Z,90.30
2022-08-09T23:46:38.338Z,90.00
2022-08-09T23:49:08.951Z,90.30
2022-08-09T23:51:37.703Z,89.80
2022-08-09T23:54:06.183Z,89.80
2022-08-09T23:56:52.028Z,90.30
2022-08-09T23:59:23.057Z,89.70
